Time;durP1;ratioP1;P1;durP2;ratioP2;P2;SDS_P1;SDS_P2;PMS_P1;PMS_P2;Temp;Humidity;BMP_temperature;BMP_pressure;BME280_temperature;BME280_humidity;BME280_pressure;Samples;Min_cycle;Max_cycle;Signal;HPM_P1;HPM_P2
2022/04/29 00:00:17;;;;;;;5.72;1.65;;;;;;;;;;5121110;27;20070;-69
2022/04/29 00:02:44;;;;;;;5.38;1.80;;;;;;;;;;5121484;27;20329;-69
2022/04/29 00:05:10;;;;;;;5.50;1.80;;;;;;;;;;5119497;27;20046;-71
2022/04/29 00:07:38;;;;;;;4.88;1.73;;;;;;;;;;5121225;27;20454;-70
2022/04/29 00:10:05;;;;;;;5.20;2.03;;;;;;;;;;5121178;27;20392;-70
2022/04/29 00:12:31;;;;;;;5.03;1.83;;;;;;;;;;5120539;27;20126;-70
2022/04/29 00:14:57;;;;;;;5.00;1.70;;;;;;;;;;5104224;27;20118;-70
2022/04/29 00:17:23;;;;;;;4.22;1.70;;;;;;;;;;5103700;27;20056;-70
2022/04/29 00:19:49;;;;;;;7.13;1.88;;;;;;;;;;5103285;27;20111;-70
2022/04/29 00:22:16;;;;;;;4.07;1.55;;;;;;;;;;5086862;27;20074;-70
2022/04/29 00:24:42;;;;;;;4.80;1.85;;;;;;;;;;5086690;27;20074;-70
2022/04/29 00:27:08;;;;;;;5.30;1.92;;;;;;;;;;5103342;27;20066;-71
2022/04/29 00:29:34;;;;;;;5.40;1.77;;;;;;;;;;5086206;27;20058;-70
2022/04/29 00:32:00;;;;;;;4.90;1.60;;;;;;;;;;5086355;27;20072;-71
2022/04/29 00:34:26;;;;;;;5.20;1.90;;;;;;;;;;5103664;27;20055;-71
2022/04/29 00:36:52;;;;;;;6.05;1.83;;;;;;;;;;5103248;27;20093;-71
2022/04/29 00:39:18;;;;;;;7.18;1.77;;;;;;;;;;5102660;27;20059;-71
2022/04/29 00:41:44;;;;;;;6.32;1.95;;;;;;;;;;5103253;27;20062;-69
2022/04/29 00:44:11;;;;;;;5.78;1.80;;;;;;;;;;5116275;27;20099;-69
2022/04/29 00:46:44;;;;;;;5.53;1.70;;;;;;;;;;5099373;27;20043;-69
2022/04/29 00:49:11;;;;;;;4.25;1.50;;;;;;;;;;5082444;28;20039;-69
2022/04/29 00:51:38;;;;;;;4.65;1.80;;;;;;;;;;5082447;28;20039;-70
2022/04/29 00:54:06;;;;;;;4.55;1.70;;;;;;;;;;5082573;28;20047;-70
2022/04/29 00:56:35;;;;;;;7.43;2.03;;;;;;;;;;5082136;28;20066;-70
2022/04/29 00:59:03;;;;;;;5.93;2.00;;;;;;;;;;5082365;28;20174;-69
2022/04/29 01:01:32;;;;;;;7.00;2.10;;;;;;;;;;5082425;28;20036;-69
2022/04/29 01:03:59;;;;;;;6.25;1.90;;;;;;;;;;5082126;28;20528;-69
2022/04/29 01:06:25;;;;;;;5.22;1.83;;;;;;;;;;5081950;28;20564;-70
2022/04/29 01:08:52;;;;;;;6.60;1.90;;;;;;;;;;5070393;27;20035;-70
2022/04/29 01:11:21;;;;;;;4.03;1.52;;;;;;;;;;5119638;27;20047;-69
2022/04/29 01:13:47;;;;;;;5.57;1.92;;;;;;;;;;5119773;27;20035;-69
2022/04/29 01:16:13;;;;;;;4.13;1.55;;;;;;;;;;5119231;27;20408;-70
2022/04/29 01:18:41;;;;;;;4.95;1.80;;;;;;;;;;5120190;27;20039;-69
2022/04/29 01:21:07;;;;;;;8.25;2.55;;;;;;;;;;5119359;27;20153;-69
2022/04/29 01:23:33;;;;;;;7.40;2.08;;;;;;;;;;5119681;27;20282;-70
2022/04/29 01:25:59;;;;;;;5.88;2.03;;;;;;;;;;5119080;27;20666;-69
2022/04/29 01:28:28;;;;;;;5.40;1.70;;;;;;;;;;5119195;27;20555;-68
2022/04/29 01:30:54;;;;;;;5.30;1.90;;;;;;;;;;5119940;27;20070;-69
2022/04/29 01:33:21;;;;;;;6.80;1.80;;;;;;;;;;5119753;27;20035;-69
2022/04/29 01:35:47;;;;;;;6.43;1.83;;;;;;;;;;5119263;27;20070;-70
2022/04/29 01:38:12;;;;;;;5.60;1.80;;;;;;;;;;5102026;27;20542;-70
2022/04/29 01:40:38;;;;;;;4.63;1.80;;;;;;;;;;5119406;27;20047;-70
2022/04/29 01:43:04;;;;;;;6.00;1.92;;;;;;;;;;5102027;27;20388;-70
2022/04/29 01:45:30;;;;;;;6.75;1.92;;;;;;;;;;5118831;27;20042;-70
2022/04/29 01:47:56;;;;;;;5.60;2.05;;;;;;;;;;5119394;27;20039;-70
2022/04/29 01:50:23;;;;;;;4.95;1.80;;;;;;;;;;5117975;27;20043;-70
2022/04/29 01:52:49;;;;;;;3.83;1.52;;;;;;;;;;5118779;27;20075;-71
2022/04/29 01:55:15;;;;;;;5.97;1.90;;;;;;;;;;5118026;27;20452;-71
2022/04/29 01:57:41;;;;;;;5.28;1.70;;;;;;;;;;5118696;27;20100;-71
2022/04/29 02:00:07;;;;;;;4.72;1.67;;;;;;;;;;5119130;27;20081;-71
2022/04/29 02:02:33;;;;;;;5.28;1.80;;;;;;;;;;5118575;27;20130;-71
2022/04/29 02:04:59;;;;;;;4.97;1.90;;;;;;;;;;5118775;27;20341;-70
2022/04/29 02:07:25;;;;;;;5.10;1.58;;;;;;;;;;5101895;28;20035;-71
2022/04/29 02:09:51;;;;;;;5.78;1.98;;;;;;;;;;5118779;28;20074;-71
2022/04/29 02:12:17;;;;;;;5.35;2.10;;;;;;;;;;5101359;28;20122;-71
2022/04/29 02:14:43;;;;;;;4.45;1.63;;;;;;;;;;5118754;28;20039;-71
2022/04/29 02:17:10;;;;;;;5.50;2.00;;;;;;;;;;5118844;28;20433;-71
2022/04/29 02:19:37;;;;;;;4.57;1.52;;;;;;;;;;5118805;28;20122;-71
2022/04/29 02:22:04;;;;;;;5.70;1.60;;;;;;;;;;5101904;28;20532;-71
2022/04/29 02:24:30;;;;;;;4.80;1.77;;;;;;;;;;5118984;28;20450;-71
2022/04/29 02:26:59;;;;;;;5.70;1.85;;;;;;;;;;5101424;28;20031;-70
2022/04/29 02:29:27;;;;;;;4.90;1.63;;;;;;;;;;5105401;27;20043;-70
2022/04/29 02:31:53;;;;;;;5.28;1.60;;;;;;;;;;5123094;27;20136;-70
2022/04/29 02:34:19;;;;;;;6.18;1.92;;;;;;;;;;5122816;27;20118;-70
2022/04/29 02:36:45;;;;;;;6.10;2.17;;;;;;;;;;5081638;27;20046;-70
2022/04/29 02:39:11;;;;;;;4.97;1.63;;;;;;;;;;5060999;27;20709;-71
2022/04/29 02:41:37;;;;;;;5.07;1.80;;;;;;;;;;5105366;27;20439;-71
2022/04/29 02:44:03;;;;;;;5.72;1.80;;;;;;;;;;5105526;27;20531;-70
2022/04/29 02:46:29;;;;;;;4.63;1.65;;;;;;;;;;5088564;27;20039;-70
2022/04/29 02:48:56;;;;;;;7.68;2.25;;;;;;;;;;5105540;27;20552;-70
2022/04/29 02:51:22;;;;;;;4.63;1.52;;;;;;;;;;5105062;27;20047;-70
2022/04/29 02:53:48;;;;;;;5.60;1.90;;;;;;;;;;5123885;27;20726;-70
2022/04/29 02:56:14;;;;;;;5.38;1.70;;;;;;;;;;5123109;27;20396;-70
2022/04/29 02:58:40;;;;;;;5.05;1.50;;;;;;;;;;5104779;27;20050;-70
2022/04/29 03:01:05;;;;;;;4.72;1.60;;;;;;;;;;5105110;27;20122;-70
2022/04/29 03:03:31;;;;;;;5.00;1.50;;;;;;;;;;5105684;27;20311;-70
2022/04/29 03:05:58;;;;;;;3.95;1.35;;;;;;;;;;5103950;27;20314;-70
2022/04/29 03:08:24;;;;;;;3.72;1.55;;;;;;;;;;5104838;27;20041;-70
2022/04/29 03:10:50;;;;;;;5.47;1.42;;;;;;;;;;5087746;27;20460;-70
2022/04/29 03:13:16;;;;;;;4.78;1.55;;;;;;;;;;5104567;27;20039;-70
2022/04/29 03:15:42;;;;;;;4.80;1.77;;;;;;;;;;5104614;27;20046;-70
2022/04/29 03:18:23;;;;;;;3.90;1.48;;;;;;;;;;5105117;27;20441;-70
2022/04/29 03:20:50;;;;;;;4.47;1.67;;;;;;;;;;5104702;27;20491;-70
2022/04/29 03:23:17;;;;;;;5.00;1.90;;;;;;;;;;5104694;27;20055;-70
2022/04/29 03:25:43;;;;;;;4.82;1.55;;;;;;;;;;5104293;27;20131;-70
2022/04/29 03:28:09;;;;;;;5.47;1.77;;;;;;;;;;5104338;27;20119;-71
2022/04/29 03:30:35;;;;;;;5.40;1.83;;;;;;;;;;5104641;27;20055;-71
2022/04/29 03:33:03;;;;;;;5.22;2.13;;;;;;;;;;5104524;27;20046;-71
2022/04/29 03:35:29;;;;;;;5.68;1.90;;;;;;;;;;5104324;27;20035;-71
2022/04/29 03:37:55;;;;;;;4.00;1.50;;;;;;;;;;5104193;27;20070;-71
2022/04/29 03:40:22;;;;;;;4.45;1.60;;;;;;;;;;5103698;27;20039;-70
2022/04/29 03:42:55;;;;;;;4.88;1.50;;;;;;;;;;5103388;27;20050;-70
2022/04/29 03:45:22;;;;;;;3.95;1.73;;;;;;;;;;5084110;28;20065;-70
2022/04/29 03:47:48;;;;;;;3.58;1.48;;;;;;;;;;5066670;28;20043;-70
2022/04/29 03:50:15;;;;;;;8.00;1.80;;;;;;;;;;5083853;28;20695;-70
2022/04/29 03:52:47;;;;;;;5.15;1.85;;;;;;;;;;5083887;28;20739;-71
2022/04/29 03:55:14;;;;;;;6.78;1.80;;;;;;;;;;5066607;28;20543;-70
2022/04/29 03:57:40;;;;;;;4.35;1.58;;;;;;;;;;5066639;28;20071;-70
2022/04/29 04:00:06;;;;;;;5.50;1.85;;;;;;;;;;5093527;27;20519;-70
2022/04/29 04:02:32;;;;;;;6.20;1.80;;;;;;;;;;5087061;27;20051;-70
2022/04/29 04:04:58;;;;;;;4.68;1.65;;;;;;;;;;5086686;27;20039;-70
2022/04/29 04:07:24;;;;;;;4.72;1.60;;;;;;;;;;5086567;27;20133;-70
2022/04/29 04:09:50;;;;;;;3.92;1.50;;;;;;;;;;5103409;27;20111;-70
2022/04/29 04:12:16;;;;;;;5.28;1.70;;;;;;;;;;5086971;27;20087;-70
2022/04/29 04:14:43;;;;;;;4.25;1.52;;;;;;;;;;5086753;27;20055;-70
2022/04/29 04:17:08;;;;;;;4.72;1.77;;;;;;;;;;5104371;27;20432;-70
2022/04/29 04:19:35;;;;;;;4.60;1.65;;;;;;;;;;5122811;27;20043;-70
2022/04/29 04:22:01;;;;;;;5.05;1.70;;;;;;;;;;5103409;27;20717;-71
2022/04/29 04:24:27;;;;;;;5.30;1.60;;;;;;;;;;5122191;27;20043;-71
2022/04/29 04:26:53;;;;;;;5.13;1.70;;;;;;;;;;5103191;27;20118;-70
2022/04/29 04:29:19;;;;;;;5.28;1.65;;;;;;;;;;5103047;27;20093;-69
2022/04/29 04:31:47;;;;;;;3.60;1.35;;;;;;;;;;5103031;27;20493;-69
2022/04/29 04:36:58;;;;;;;4.32;1.45;;;;;;;;;;5103982;27;20043;-70
2022/04/29 04:39:24;;;;;;;4.43;1.70;;;;;;;;;;5122044;27;20408;-70
2022/04/29 04:41:50;;;;;;;4.97;1.70;;;;;;;;;;5103225;27;20050;-69
2022/04/29 04:44:16;;;;;;;4.80;1.58;;;;;;;;;;5103549;27;20035;-69
2022/04/29 04:46:42;;;;;;;4.22;1.50;;;;;;;;;;5086145;27;20047;-69
2022/04/29 04:49:11;;;;;;;4.65;1.60;;;;;;;;;;5103182;27;20047;-69
2022/04/29 04:51:37;;;;;;;4.85;1.50;;;;;;;;;;5102448;27;20407;-69
2022/04/29 04:54:03;;;;;;;4.88;1.73;;;;;;;;;;5103029;27;20034;-70
2022/04/29 04:56:29;;;;;;;3.75;1.42;;;;;;;;;;5102958;27;20281;-70
2022/04/29 04:58:55;;;;;;;6.53;1.60;;;;;;;;;;5086014;27;20566;-70
2022/04/29 05:01:21;;;;;;;3.88;1.40;;;;;;;;;;5103197;27;20055;-70
2022/04/29 05:03:47;;;;;;;3.95;1.48;;;;;;;;;;5102956;27;20502;-70
2022/04/29 05:06:13;;;;;;;3.47;1.30;;;;;;;;;;5102088;27;20039;-70
2022/04/29 05:08:39;;;;;;;4.30;1.20;;;;;;;;;;5102245;27;20067;-70
2022/04/29 05:11:05;;;;;;;3.72;1.50;;;;;;;;;;5086171;27;20066;-70
2022/04/29 05:13:31;;;;;;;4.00;1.33;;;;;;;;;;5102002;27;20047;-70
2022/04/29 05:15:57;;;;;;;3.75;1.55;;;;;;;;;;5102941;27;20078;-70
2022/04/29 05:18:23;;;;;;;4.30;1.60;;;;;;;;;;5102314;27;20042;-70
2022/04/29 05:20:49;;;;;;;3.83;1.45;;;;;;;;;;5102565;27;20515;-69
2022/04/29 05:23:15;;;;;;;4.97;1.60;;;;;;;;;;5102938;27;20043;-70
2022/04/29 05:25:41;;;;;;;3.30;1.20;;;;;;;;;;5102089;27;20039;-70
2022/04/29 05:28:08;;;;;;;3.85;1.20;;;;;;;;;;5102274;27;20238;-70
2022/04/29 05:30:34;;;;;;;4.45;1.40;;;;;;;;;;5102060;27;20051;-70
2022/04/29 05:33:01;;;;;;;5.10;1.60;;;;;;;;;;5102309;27;20070;-70
2022/04/29 05:35:27;;;;;;;4.95;1.35;;;;;;;;;;5102605;27;20063;-70
2022/04/29 05:37:53;;;;;;;4.53;1.52;;;;;;;;;;5084817;28;20038;-70
2022/04/29 05:43:05;;;;;;;6.95;1.42;;;;;;;;;;5102478;27;20457;-69
2022/04/29 05:45:31;;;;;;;4.25;1.55;;;;;;;;;;5101866;27;20074;-70
2022/04/29 05:47:57;;;;;;;3.45;1.27;;;;;;;;;;5101745;27;20115;-69
2022/04/29 05:50:23;;;;;;;4.63;1.58;;;;;;;;;;5120717;27;20045;-70
2022/04/29 05:52:49;;;;;;;4.97;1.70;;;;;;;;;;5102629;27;20047;-69
2022/04/29 05:55:15;;;;;;;4.75;1.50;;;;;;;;;;5085298;27;20118;-70
2022/04/29 05:57:41;;;;;;;5.72;1.40;;;;;;;;;;5085135;27;20056;-70
2022/04/29 06:00:08;;;;;;;4.55;1.40;;;;;;;;;;5102756;27;20279;-69
2022/04/29 06:02:35;;;;;;;3.35;1.15;;;;;;;;;;5102529;27;20042;-69
2022/04/29 06:05:02;;;;;;;3.78;1.48;;;;;;;;;;5102181;28;20044;-70
2022/04/29 06:07:28;;;;;;;4.07;1.50;;;;;;;;;;5102621;28;20039;-70
2022/04/29 06:09:54;;;;;;;4.85;1.50;;;;;;;;;;5101456;28;20046;-69
2022/04/29 06:12:20;;;;;;;4.60;1.40;;;;;;;;;;5101610;28;20039;-70
2022/04/29 06:14:46;;;;;;;4.63;1.40;;;;;;;;;;5084737;28;20042;-70
2022/04/29 06:17:15;;;;;;;4.40;1.48;;;;;;;;;;5084312;28;20500;-70
2022/04/29 06:19:41;;;;;;;4.18;1.58;;;;;;;;;;5084210;28;20042;-70
2022/04/29 06:22:07;;;;;;;6.93;1.42;;;;;;;;;;5101288;28;20579;-70
2022/04/29 06:24:34;;;;;;;5.38;1.50;;;;;;;;;;5101630;28;20043;-70
2022/04/29 06:27:01;;;;;;;3.40;1.35;;;;;;;;;;5084384;28;20092;-70
2022/04/29 06:29:27;;;;;;;4.30;1.60;;;;;;;;;;5101039;28;20331;-70
2022/04/29 06:31:53;;;;;;;4.40;1.42;;;;;;;;;;5101787;28;20077;-70
2022/04/29 06:34:19;;;;;;;4.55;1.60;;;;;;;;;;5099876;28;20269;-70
2022/04/29 06:36:45;;;;;;;3.58;1.17;;;;;;;;;;5080773;28;20446;-71
2022/04/29 06:39:11;;;;;;;4.50;1.52;;;;;;;;;;5080879;28;20055;-71
2022/04/29 06:41:37;;;;;;;5.80;1.60;;;;;;;;;;5080950;28;20079;-70
2022/04/29 06:44:04;;;;;;;4.20;1.40;;;;;;;;;;5081519;28;20548;-70
2022/04/29 06:46:30;;;;;;;4.22;1.55;;;;;;;;;;5081067;28;20131;-70
2022/04/29 06:48:56;;;;;;;4.32;1.40;;;;;;;;;;5080898;28;20404;-70
2022/04/29 06:51:23;;;;;;;5.25;1.30;;;;;;;;;;5080584;28;20216;-70
2022/04/29 06:53:49;;;;;;;6.10;1.65;;;;;;;;;;5064361;28;20334;-70
2022/04/29 06:56:15;;;;;;;5.28;1.73;;;;;;;;;;5081127;28;20092;-70
2022/04/29 06:58:41;;;;;;;3.53;1.20;;;;;;;;;;5081135;28;20552;-70
2022/04/29 07:01:07;;;;;;;5.68;1.50;;;;;;;;;;5081167;28;20131;-71
2022/04/29 07:03:33;;;;;;;4.88;1.40;;;;;;;;;;5081175;28;20071;-71
2022/04/29 07:06:01;;;;;;;4.47;1.40;;;;;;;;;;5081018;28;20062;-71
2022/04/29 07:08:28;;;;;;;3.20;1.25;;;;;;;;;;5081121;28;20043;-71
2022/04/29 07:10:55;;;;;;;4.80;1.35;;;;;;;;;;5080968;28;20584;-71
2022/04/29 07:13:22;;;;;;;3.60;1.35;;;;;;;;;;5081773;28;20423;-71
2022/04/29 07:15:48;;;;;;;3.63;1.27;;;;;;;;;;5085147;27;20061;-70
2022/04/29 07:18:14;;;;;;;5.38;1.63;;;;;;;;;;5105244;27;20043;-70
2022/04/29 07:20:41;;;;;;;3.45;1.20;;;;;;;;;;5103724;27;20041;-70
2022/04/29 07:23:07;;;;;;;4.25;1.35;;;;;;;;;;5104743;27;20062;-69
2022/04/29 07:25:33;;;;;;;4.10;1.42;;;;;;;;;;5104533;27;20512;-69
2022/04/29 07:27:59;;;;;;;4.63;1.50;;;;;;;;;;5104267;27;20400;-70
2022/04/29 07:30:28;;;;;;;4.40;1.25;;;;;;;;;;5104367;27;20135;-69
2022/04/29 07:32:55;;;;;;;3.15;1.30;;;;;;;;;;5104390;27;20060;-71
2022/04/29 07:43:35;;;;;;;5.30;1.33;;;;;;;;;;5104311;27;19990;-70
2022/04/29 07:46:01;;;;;;;4.55;1.42;;;;;;;;;;5087605;27;20413;-70
2022/04/29 07:48:27;;;;;;;3.67;1.35;;;;;;;;;;5104177;27;20433;-70
2022/04/29 07:50:53;;;;;;;4.43;1.50;;;;;;;;;;5103975;27;20044;-70
2022/04/29 07:53:19;;;;;;;3.78;1.45;;;;;;;;;;5086558;27;20184;-70
2022/04/29 07:55:46;;;;;;;5.03;1.30;;;;;;;;;;5103746;27;20187;-70
2022/04/29 07:58:12;;;;;;;3.83;1.33;;;;;;;;;;5087432;27;20385;-70
2022/04/29 08:00:38;;;;;;;3.53;1.27;;;;;;;;;;5103692;27;20277;-69
2022/04/29 08:03:04;;;;;;;3.50;1.33;;;;;;;;;;5103966;27;20116;-69
2022/04/29 08:05:31;;;;;;;4.20;1.20;;;;;;;;;;5103883;27;20115;-70
2022/04/29 08:07:59;;;;;;;4.00;1.40;;;;;;;;;;5103417;27;20535;-70
2022/04/29 08:10:32;;;;;;;3.47;1.20;;;;;;;;;;5104042;27;20461;-69
2022/04/29 08:12:59;;;;;;;4.20;1.50;;;;;;;;;;5086746;27;20161;-70
2022/04/29 08:15:28;;;;;;;3.13;1.33;;;;;;;;;;5103777;27;20047;-71
2022/04/29 08:17:54;;;;;;;4.20;1.38;;;;;;;;;;5103679;27;20156;-70
2022/04/29 08:20:21;;;;;;;4.03;1.30;;;;;;;;;;5102880;27;20147;-71
2022/04/29 08:22:47;;;;;;;4.00;1.40;;;;;;;;;;5086492;27;20147;-69
2022/04/29 08:25:15;;;;;;;3.50;1.40;;;;;;;;;;5084745;27;20031;-69
2022/04/29 08:27:41;;;;;;;5.35;1.30;;;;;;;;;;5103129;27;20434;-69
2022/04/29 08:30:09;;;;;;;3.92;1.15;;;;;;;;;;5102696;27;20556;-69
2022/04/29 08:32:53;;;;;;;4.28;1.20;;;;;;;;;;5103310;27;20082;-70
2022/04/29 08:35:19;;;;;;;3.33;1.15;;;;;;;;;;5103238;27;20535;-71
2022/04/29 08:37:45;;;;;;;3.88;1.40;;;;;;;;;;5103127;27;20043;-70
2022/04/29 08:40:12;;;;;;;4.65;1.30;;;;;;;;;;5103055;27;20043;-71
2022/04/29 08:42:40;;;;;;;4.85;1.30;;;;;;;;;;5103130;27;20251;-70
2022/04/29 08:45:10;;;;;;;3.45;1.10;;;;;;;;;;5103131;27;20050;-70
2022/04/29 08:47:37;;;;;;;4.68;1.48;;;;;;;;;;5103125;27;20378;-70
2022/04/29 08:50:05;;;;;;;2.92;1.08;;;;;;;;;;5102787;27;20391;-69
2022/04/29 08:52:31;;;;;;;3.22;1.10;;;;;;;;;;5085991;27;20129;-70
2022/04/29 09:00:27;;;;;;;3.70;1.10;;;;;;;;;;5097202;28;19915;-71
2022/04/29 09:02:53;;;;;;;2.38;1.00;;;;;;;;;;5082585;28;20126;-70
2022/04/29 09:05:19;;;;;;;6.55;1.40;;;;;;;;;;5081890;28;20073;-70
2022/04/29 09:07:52;;;;;;;3.47;1.30;;;;;;;;;;5065591;28;20043;-70
2022/04/29 09:10:19;;;;;;;3.75;1.33;;;;;;;;;;5082475;28;20043;-71
2022/04/29 09:12:45;;;;;;;3.20;1.30;;;;;;;;;;5081783;28;20043;-70
2022/04/29 09:15:11;;;;;;;3.67;1.35;;;;;;;;;;5065347;28;20031;-70
2022/04/29 09:17:40;;;;;;;3.72;1.30;;;;;;;;;;5082367;28;20047;-72
2022/04/29 09:20:20;;;;;;;4.35;1.25;;;;;;;;;;5100469;28;20035;-69
2022/04/29 09:22:47;;;;;;;4.22;1.25;;;;;;;;;;5082207;28;20044;-70
2022/04/29 09:25:14;;;;;;;3.13;1.20;;;;;;;;;;5081977;28;20097;-70
2022/04/29 09:27:57;;;;;;;4.22;1.23;;;;;;;;;;5080957;28;20050;-70
2022/04/29 09:30:33;;;;;;;4.40;1.40;;;;;;;;;;5081793;28;20059;-70
2022/04/29 09:32:59;;;;;;;3.58;1.20;;;;;;;;;;5081556;28;20303;-71
2022/04/29 09:35:38;;;;;;;3.75;1.23;;;;;;;;;;5085466;27;20039;-71
2022/04/29 09:40:49;;;;;;;5.22;1.30;;;;;;;;;;5101377;27;20142;-70
2022/04/29 09:43:15;;;;;;;6.32;1.38;;;;;;;;;;5085252;27;20049;-70
2022/04/29 09:45:41;;;;;;;3.35;1.23;;;;;;;;;;5101912;27;20046;-70
2022/04/29 09:48:11;;;;;;;2.97;1.10;;;;;;;;;;5101722;27;20039;-69
2022/04/29 09:50:46;;;;;;;3.33;1.10;;;;;;;;;;5084881;27;20160;-69
2022/04/29 09:53:16;;;;;;;5.20;1.20;;;;;;;;;;5102168;27;20191;-70
2022/04/29 09:55:42;;;;;;;3.45;1.05;;;;;;;;;;5101673;27;20081;-70
2022/04/29 09:58:09;;;;;;;3.45;1.10;;;;;;;;;;5084880;28;20075;-69
2022/04/29 10:00:36;;;;;;;4.15;1.27;;;;;;;;;;5101683;28;20180;-70
2022/04/29 10:03:03;;;;;;;3.10;1.13;;;;;;;;;;5101853;27;20035;-69
2022/04/29 10:05:30;;;;;;;3.97;1.33;;;;;;;;;;5097652;28;20047;-69
2022/04/29 10:07:58;;;;;;;2.67;1.10;;;;;;;;;;5081194;28;20047;-69
2022/04/29 10:10:24;;;;;;;4.00;1.50;;;;;;;;;;5081284;28;20049;-70
2022/04/29 10:12:51;;;;;;;3.58;1.33;;;;;;;;;;5081298;28;20096;-69
2022/04/29 10:15:18;;;;;;;4.40;1.40;;;;;;;;;;5081363;28;20036;-69
2022/04/29 10:23:20;;;;;;;3.42;1.30;;;;;;;;;;5080703;28;20071;-68
2022/04/29 10:25:47;;;;;;;3.20;1.30;;;;;;;;;;5081582;28;20050;-69
2022/04/29 10:28:17;;;;;;;3.38;1.30;;;;;;;;;;5081200;28;20519;-70
2022/04/29 10:30:43;;;;;;;4.20;1.60;;;;;;;;;;5080921;28;20048;-69
2022/04/29 10:33:09;;;;;;;4.20;1.30;;;;;;;;;;5081206;28;20042;-69
2022/04/29 10:35:47;;;;;;;2.95;1.30;;;;;;;;;;5081453;28;20272;-69
2022/04/29 10:38:16;;;;;;;4.97;1.33;;;;;;;;;;5080716;28;20050;-69
2022/04/29 10:40:42;;;;;;;3.45;1.38;;;;;;;;;;5080802;28;20050;-70
2022/04/29 10:43:09;;;;;;;3.38;1.13;;;;;;;;;;5080744;28;20129;-70
2022/04/29 10:45:36;;;;;;;4.90;1.42;;;;;;;;;;5080912;28;20224;-70
2022/04/29 10:48:21;;;;;;;3.10;1.25;;;;;;;;;;5064716;28;20127;-70
2022/04/29 10:50:47;;;;;;;4.03;1.40;;;;;;;;;;5084432;28;20382;-70
2022/04/29 10:53:13;;;;;;;3.95;1.50;;;;;;;;;;5085241;28;20560;-70
2022/04/29 10:55:39;;;;;;;4.43;1.52;;;;;;;;;;5084684;28;20131;-70
2022/04/29 10:58:18;;;;;;;2.55;1.20;;;;;;;;;;5084604;28;20453;-70
2022/04/29 11:00:54;;;;;;;3.97;1.70;;;;;;;;;;5109022;27;20126;-69
2022/04/29 11:03:41;;;;;;;3.40;1.25;;;;;;;;;;5095324;28;20396;-69
2022/04/29 11:06:14;;;;;;;3.53;1.60;;;;;;;;;;5067964;28;20393;-69
2022/04/29 11:08:40;;;;;;;3.80;1.52;;;;;;;;;;5084880;28;20218;-70
2022/04/29 11:11:07;;;;;;;4.18;1.48;;;;;;;;;;5067709;28;20404;-70
2022/04/29 11:13:37;;;;;;;3.40;1.35;;;;;;;;;;5104810;27;20208;-70
2022/04/29 11:16:14;;;;;;;4.00;1.40;;;;;;;;;;5105691;27;20369;-70
2022/04/29 11:18:41;;;;;;;3.28;1.40;;;;;;;;;;5104937;27;20047;-70
2022/04/29 11:26:45;;;;;;;3.92;1.50;;;;;;;;;;5104848;27;20046;-70
2022/04/29 11:29:11;;;;;;;3.80;1.42;;;;;;;;;;5104595;27;20099;-70
2022/04/29 11:31:37;;;;;;;5.13;1.30;;;;;;;;;;5104517;27;20240;-70
2022/04/29 11:34:07;;;;;;;3.90;1.65;;;;;;;;;;5104899;27;20400;-70
2022/04/29 11:36:33;;;;;;;4.60;1.80;;;;;;;;;;5082292;28;20043;-69
2022/04/29 11:38:59;;;;;;;4.85;1.40;;;;;;;;;;5069941;27;20039;-69
2022/04/29 11:41:28;;;;;;;3.08;1.30;;;;;;;;;;5120750;27;20050;-69
2022/04/29 11:43:54;;;;;;;3.58;1.50;;;;;;;;;;5121524;27;20511;-69
2022/04/29 11:46:21;;;;;;;3.55;1.45;;;;;;;;;;5121380;27;20035;-69
2022/04/29 11:49:05;;;;;;;3.28;1.23;;;;;;;;;;5121323;27;20042;-71
2022/04/29 11:51:31;;;;;;;5.43;1.63;;;;;;;;;;5120936;27;20112;-71
2022/04/29 11:54:04;;;;;;;2.90;1.30;;;;;;;;;;5121187;27;20046;-71
2022/04/29 11:56:35;;;;;;;3.60;1.33;;;;;;;;;;5121101;27;20129;-71
2022/04/29 11:59:02;;;;;;;4.00;1.52;;;;;;;;;;5122368;27;20383;-71
2022/04/29 12:01:28;;;;;;;3.92;1.48;;;;;;;;;;5121123;27;20039;-70
2022/04/29 12:03:55;;;;;;;3.75;1.52;;;;;;;;;;5103862;27;20039;-71
2022/04/29 12:06:21;;;;;;;3.88;1.45;;;;;;;;;;5104103;27;20485;-70
2022/04/29 12:08:47;;;;;;;3.45;1.40;;;;;;;;;;5120858;27;20122;-70
2022/04/29 12:11:22;;;;;;;4.53;1.60;;;;;;;;;;5122216;27;20039;-69
2022/04/29 12:13:49;;;;;;;3.45;1.40;;;;;;;;;;5122472;27;20118;-69
2022/04/29 12:16:15;;;;;;;3.97;1.48;;;;;;;;;;5120707;27;20046;-70
2022/04/29 12:18:45;;;;;;;3.95;1.40;;;;;;;;;;5121177;27;20058;-69
2022/04/29 12:21:12;;;;;;;3.85;1.30;;;;;;;;;;5113995;27;20043;-69
2022/04/29 12:23:38;;;;;;;2.63;1.20;;;;;;;;;;5103326;27;20038;-69
2022/04/29 12:26:07;;;;;;;4.13;1.65;;;;;;;;;;5086303;27;20391;-69
2022/04/29 12:28:35;;;;;;;3.65;1.40;;;;;;;;;;5103107;27;20073;-69
2022/04/29 12:36:46;;;;;;;3.15;1.45;;;;;;;;;;5103223;27;20130;-70
2022/04/29 12:39:11;;;;;;;4.20;1.45;;;;;;;;;;5086631;27;20511;-69
2022/04/29 12:41:37;;;;;;;4.38;1.65;;;;;;;;;;5121662;27;20114;-68
2022/04/29 12:44:07;;;;;;;3.65;1.52;;;;;;;;;;5087155;27;20039;-69
2022/04/29 12:46:34;;;;;;;3.22;1.38;;;;;;;;;;5103521;27;20405;-69
2022/04/29 12:49:00;;;;;;;3.63;1.60;;;;;;;;;;5086165;27;20530;-69
2022/04/29 12:51:28;;;;;;;3.20;1.45;;;;;;;;;;5085873;27;20121;-70
2022/04/29 12:53:54;;;;;;;4.07;1.48;;;;;;;;;;5102577;27;20484;-70
2022/04/29 12:56:24;;;;;;;3.10;1.40;;;;;;;;;;5102420;27;20175;-69
2022/04/29 12:58:50;;;;;;;4.75;1.80;;;;;;;;;;5102833;27;20121;-70
2022/04/29 13:01:16;;;;;;;3.22;1.50;;;;;;;;;;5085680;27;20409;-70
2022/04/29 13:03:47;;;;;;;3.10;1.40;;;;;;;;;;5086213;27;20275;-70
2022/04/29 13:06:13;;;;;;;3.78;1.40;;;;;;;;;;5101828;27;20312;-70
2022/04/29 13:08:40;;;;;;;3.72;1.50;;;;;;;;;;5102438;27;20666;-69
2022/04/29 13:11:06;;;;;;;4.13;1.60;;;;;;;;;;5101952;28;20043;-69
2022/04/29 13:13:32;;;;;;;5.93;1.35;;;;;;;;;;5102499;27;20046;-69
2022/04/29 13:15:58;;;;;;;4.80;1.63;;;;;;;;;;5102163;27;20039;-69
2022/04/29 13:18:24;;;;;;;3.45;1.40;;;;;;;;;;5102303;27;20051;-69
2022/04/29 13:20:51;;;;;;;4.90;1.52;;;;;;;;;;5102276;27;20042;-70
2022/04/29 13:23:17;;;;;;;2.90;1.30;;;;;;;;;;5102330;27;20133;-69
2022/04/29 13:25:44;;;;;;;4.40;1.70;;;;;;;;;;5101806;27;20186;-70
2022/04/29 13:28:10;;;;;;;3.22;1.50;;;;;;;;;;5102045;27;20051;-69
2022/04/29 13:30:38;;;;;;;5.85;1.98;;;;;;;;;;5098749;28;20051;-70
2022/04/29 13:33:05;;;;;;;4.07;1.50;;;;;;;;;;5081966;28;20039;-69
2022/04/29 13:35:31;;;;;;;4.22;1.50;;;;;;;;;;5098688;28;20123;-70
2022/04/29 13:37:57;;;;;;;3.63;1.50;;;;;;;;;;5098846;28;20100;-70
2022/04/29 13:40:23;;;;;;;3.15;1.50;;;;;;;;;;5098600;28;20455;-70
2022/04/29 13:42:52;;;;;;;4.07;1.70;;;;;;;;;;5098634;28;20119;-70
2022/04/29 13:45:18;;;;;;;4.85;1.65;;;;;;;;;;5098691;28;20112;-70
2022/04/29 13:47:44;;;;;;;3.55;1.55;;;;;;;;;;5098461;28;20072;-71
2022/04/29 13:50:10;;;;;;;4.85;1.75;;;;;;;;;;5098276;28;20059;-69
2022/04/29 13:55:21;;;;;;;3.28;1.40;;;;;;;;;;5097693;28;20446;-70
2022/04/29 13:57:47;;;;;;;3.55;1.50;;;;;;;;;;5098294;28;20155;-70
2022/04/29 14:00:14;;;;;;;4.38;1.60;;;;;;;;;;5081144;28;20069;-69
2022/04/29 14:02:41;;;;;;;3.75;1.50;;;;;;;;;;5098300;28;20198;-70
2022/04/29 14:05:07;;;;;;;5.50;1.58;;;;;;;;;;5081802;28;20430;-69
2022/04/29 14:07:33;;;;;;;3.63;1.60;;;;;;;;;;5097966;28;20059;-70
2022/04/29 14:10:00;;;;;;;3.83;1.50;;;;;;;;;;5098252;28;20035;-69
2022/04/29 14:12:26;;;;;;;3.08;1.25;;;;;;;;;;5097673;28;20042;-70
2022/04/29 14:14:54;;;;;;;4.47;1.60;;;;;;;;;;5098302;28;20043;-70
2022/04/29 14:17:20;;;;;;;3.00;1.30;;;;;;;;;;5098344;28;20059;-70
2022/04/29 14:19:46;;;;;;;4.07;1.52;;;;;;;;;;5097603;28;20043;-69
2022/04/29 14:22:12;;;;;;;6.25;1.80;;;;;;;;;;5098326;28;20470;-69
2022/04/29 14:24:38;;;;;;;3.80;1.63;;;;;;;;;;5101799;28;20039;-70
2022/04/29 14:27:05;;;;;;;5.22;1.63;;;;;;;;;;5102566;28;20061;-70
2022/04/29 14:29:39;;;;;;;4.22;1.60;;;;;;;;;;5103267;27;20578;-70
2022/04/29 14:32:06;;;;;;;3.67;1.30;;;;;;;;;;5105578;27;20400;-70
2022/04/29 14:34:32;;;;;;;3.00;1.40;;;;;;;;;;5105697;27;20304;-69
2022/04/29 14:37:02;;;;;;;4.53;1.70;;;;;;;;;;5105405;27;20476;-69
2022/04/29 14:39:28;;;;;;;3.92;1.48;;;;;;;;;;5105686;27;20475;-69
2022/04/29 14:41:56;;;;;;;3.42;1.40;;;;;;;;;;5105635;27;20058;-69
2022/04/29 14:44:22;;;;;;;4.22;1.50;;;;;;;;;;5088708;27;20074;-70
2022/04/29 14:46:49;;;;;;;3.92;1.55;;;;;;;;;;5105427;27;20511;-69
2022/04/29 14:49:15;;;;;;;3.30;1.40;;;;;;;;;;5105723;27;20222;-69
2022/04/29 14:51:41;;;;;;;3.55;1.48;;;;;;;;;;5105093;27;20500;-70
2022/04/29 14:54:08;;;;;;;2.83;1.48;;;;;;;;;;5105265;27;20114;-69
2022/04/29 14:56:34;;;;;;;3.80;1.52;;;;;;;;;;5104759;27;20058;-70
2022/04/29 14:59:00;;;;;;;3.33;1.50;;;;;;;;;;5105226;27;20122;-70
2022/04/29 15:01:28;;;;;;;3.63;1.35;;;;;;;;;;5105025;27;20096;-70
2022/04/29 15:03:54;;;;;;;4.65;1.63;;;;;;;;;;5104646;27;20095;-70
2022/04/29 15:06:23;;;;;;;3.20;1.40;;;;;;;;;;5104629;27;20108;-70
2022/04/29 15:08:48;;;;;;;3.30;1.40;;;;;;;;;;5105242;27;20115;-70
2022/04/29 15:17:00;;;;;;;4.07;1.50;;;;;;;;;;5097675;27;20071;-70
2022/04/29 15:19:26;;;;;;;4.10;1.65;;;;;;;;;;5102933;27;20654;-69
2022/04/29 15:21:52;;;;;;;4.30;1.65;;;;;;;;;;5084158;28;20054;-69
2022/04/29 15:24:18;;;;;;;3.28;1.60;;;;;;;;;;5083865;28;20124;-69
2022/04/29 15:26:44;;;;;;;4.88;1.58;;;;;;;;;;5084381;28;20500;-69
2022/04/29 15:29:10;;;;;;;4.30;1.90;;;;;;;;;;5094081;27;20050;-70